createdAt,value
2019-03-20T00:00:58.653Z,6.50
2019-03-20T00:03:26.091Z,6.40
2019-03-20T00:05:53.718Z,6.00
2019-03-20T00:08:21.324Z,5.43
2019-03-20T00:10:48.835Z,6.87
2019-03-20T00:13:16.237Z,7.33
2019-03-20T00:15:43.638Z,6.90
2019-03-20T00:18:11.267Z,5.90
2019-03-20T00:20:38.656Z,6.90
2019-03-20T00:23:06.065Z,7.40
2019-03-20T00:25:33.519Z,7.87
2019-03-20T00:28:00.904Z,5.60
2019-03-20T00:30:28.291Z,5.93
2019-03-20T00:32:55.714Z,6.57
2019-03-20T00:35:23.115Z,7.20
2019-03-20T00:37:50.501Z,7.37
2019-03-20T00:40:18.591Z,7.27
2019-03-20T00:42:45.991Z,6.07
2019-03-20T00:45:13.400Z,5.83
2019-03-20T00:47:40.830Z,5.80
2019-03-20T00:50:12.700Z,5.60
2019-03-20T00:52:40.095Z,5.23
2019-03-20T00:55:07.967Z,4.80
2019-03-20T00:57:35.363Z,4.67
2019-03-20T01:00:03.926Z,4.70
2019-03-20T01:02:31.480Z,7.23
2019-03-20T01:04:59.004Z,7.33
2019-03-20T01:07:26.635Z,6.87
2019-03-20T01:09:54.079Z,6.13
2019-03-20T01:12:21.470Z,6.43
2019-03-20T01:14:48.864Z,6.83
2019-03-20T01:17:16.318Z,6.10
2019-03-20T01:19:43.711Z,5.83
2019-03-20T01:22:11.131Z,7.80
2019-03-20T01:24:38.583Z,6.63
2019-03-20T01:27:05.973Z,6.97
2019-03-20T01:29:33.622Z,5.80
2019-03-20T01:32:01.030Z,7.40
2019-03-20T01:34:28.419Z,5.63
2019-03-20T01:36:55.852Z,6.47
2019-03-20T01:39:23.279Z,5.30
2019-03-20T01:41:50.684Z,4.53
2019-03-20T01:44:18.106Z,5.23
2019-03-20T01:46:45.531Z,5.70
2019-03-20T01:49:12.923Z,6.30
2019-03-20T01:51:40.318Z,6.23
2019-03-20T01:54:07.782Z,9.17
2019-03-20T01:56:35.191Z,7.00
2019-03-20T01:59:02.590Z,6.33
2019-03-20T02:01:30.230Z,6.50
2019-03-20T02:03:57.619Z,7.97
2019-03-20T02:06:25.205Z,7.13
2019-03-20T02:08:52.963Z,6.70
2019-03-20T02:11:20.350Z,6.80
2019-03-20T02:13:47.750Z,6.53
2019-03-20T02:16:15.347Z,5.30
2019-03-20T02:18:42.739Z,5.87
2019-03-20T02:21:10.125Z,6.50
2019-03-20T02:23:37.795Z,6.03
2019-03-20T02:26:05.181Z,6.80
2019-03-20T02:28:32.574Z,6.80
2019-03-20T02:30:59.997Z,7.10
2019-03-20T02:33:27.396Z,5.80
2019-03-20T02:35:54.879Z,5.97
2019-03-20T02:38:22.307Z,6.10
2019-03-20T02:40:49.703Z,5.23
2019-03-20T02:43:17.101Z,4.50
2019-03-20T02:45:44.663Z,4.93
2019-03-20T02:48:12.063Z,6.27
2019-03-20T02:50:39.448Z,6.83
2019-03-20T02:53:07.284Z,6.30
2019-03-20T02:55:34.870Z,5.70
2019-03-20T02:58:02.288Z,6.27
2019-03-20T03:00:29.978Z,6.47
2019-03-20T03:02:57.360Z,6.13
2019-03-20T03:05:25.129Z,7.03
2019-03-20T03:07:53.174Z,7.80
2019-03-20T03:10:20.586Z,7.63
2019-03-20T03:12:47.974Z,6.60
2019-03-20T03:15:15.639Z,5.57
2019-03-20T03:17:43.127Z,5.80
2019-03-20T03:20:10.742Z,6.67
2019-03-20T03:22:38.257Z,5.47
2019-03-20T03:25:06.095Z,4.60
2019-03-20T03:27:33.492Z,4.80
2019-03-20T03:30:00.972Z,5.37
2019-03-20T03:32:28.382Z,5.60
2019-03-20T03:34:55.760Z,5.50
2019-03-20T03:37:23.189Z,6.30
2019-03-20T03:39:50.580Z,5.20
2019-03-20T03:42:17.874Z,6.20
2019-03-20T03:44:45.432Z,5.57
2019-03-20T03:47:12.822Z,4.90
2019-03-20T03:49:40.244Z,5.40
2019-03-20T03:52:08.641Z,5.63
2019-03-20T03:54:36.022Z,5.50
2019-03-20T03:57:03.427Z,4.20
2019-03-20T03:59:30.909Z,7.53
2019-03-20T04:01:58.291Z,6.90
2019-03-20T04:04:25.693Z,6.17
2019-03-20T04:06:53.148Z,6.30
2019-03-20T04:09:20.818Z,7.37
2019-03-20T04:11:48.205Z,6.00
2019-03-20T04:14:15.646Z,5.30
2019-03-20T04:16:43.046Z,4.50
2019-03-20T04:19:10.458Z,4.80
2019-03-20T04:21:38.077Z,5.37
2019-03-20T04:24:05.477Z,5.37
2019-03-20T04:26:32.888Z,5.57
2019-03-20T04:29:00.340Z,5.90
2019-03-20T04:31:27.733Z,5.17
2019-03-20T04:33:57.582Z,5.40
2019-03-20T04:36:24.587Z,5.23
2019-03-20T04:38:51.984Z,5.70
2019-03-20T04:41:19.379Z,6.47
2019-03-20T04:43:46.811Z,4.97
2019-03-20T04:46:14.208Z,4.40
2019-03-20T04:48:41.603Z,5.90
2019-03-20T04:51:09.259Z,6.63
2019-03-20T04:53:36.660Z,5.80
2019-03-20T04:56:04.055Z,6.77
2019-03-20T04:58:31.853Z,6.90
2019-03-20T05:00:59.259Z,7.40
2019-03-20T05:03:26.662Z,7.63
2019-03-20T05:05:54.115Z,7.53
2019-03-20T05:08:21.963Z,7.40
2019-03-20T05:10:49.342Z,7.30
2019-03-20T05:13:16.827Z,7.40
2019-03-20T05:15:44.238Z,6.10
2019-03-20T05:18:11.621Z,6.03
2019-03-20T05:20:39.046Z,5.30
2019-03-20T05:23:08.457Z,4.97
2019-03-20T05:25:35.649Z,6.47
2019-03-20T05:28:03.085Z,7.30
2019-03-20T05:30:30.508Z,8.97
2019-03-20T05:32:57.903Z,7.63
2019-03-20T05:35:25.389Z,5.93
2019-03-20T05:37:52.839Z,6.00
2019-03-20T05:40:20.220Z,5.93
2019-03-20T05:42:47.810Z,8.20
2019-03-20T05:45:15.300Z,8.67
2019-03-20T05:47:42.634Z,10.13
2019-03-20T05:50:11.276Z,7.80
2019-03-20T05:52:38.667Z,8.80
2019-03-20T05:55:06.369Z,6.73
2019-03-20T05:57:34.125Z,7.10
2019-03-20T06:00:01.525Z,6.80
2019-03-20T06:02:28.933Z,8.80
2019-03-20T06:04:56.710Z,7.73
2019-03-20T06:07:24.300Z,8.17
2019-03-20T06:09:51.799Z,11.43
2019-03-20T06:12:19.411Z,8.87
2019-03-20T06:14:46.815Z,8.90
2019-03-20T06:17:14.206Z,13.17
2019-03-20T06:19:41.671Z,9.70
2019-03-20T06:22:09.080Z,9.33
2019-03-20T06:24:36.471Z,6.30
2019-03-20T06:27:03.912Z,6.70
2019-03-20T06:29:31.315Z,6.90
2019-03-20T06:31:58.719Z,7.43
2019-03-20T06:34:26.355Z,8.07
2019-03-20T06:36:53.743Z,9.00
2019-03-20T06:39:21.149Z,8.73
2019-03-20T06:41:48.579Z,7.43
2019-03-20T06:44:15.984Z,7.57
2019-03-20T06:46:43.383Z,8.33
2019-03-20T06:49:10.935Z,6.80
2019-03-20T06:51:38.331Z,6.17
2019-03-20T06:54:05.723Z,7.90
2019-03-20T06:56:33.323Z,6.50
2019-03-20T06:59:54.819Z,5.80
2019-03-20T07:02:22.275Z,6.90
2019-03-20T07:05:30.491Z,6.00
2019-03-20T07:07:58.190Z,6.70
2019-03-20T07:11:04.187Z,6.00
2019-03-20T07:13:31.743Z,6.87
2019-03-20T07:15:59.134Z,8.70
2019-03-20T07:18:26.527Z,7.73
2019-03-20T07:20:53.963Z,9.57
2019-03-20T07:23:21.363Z,9.47
2019-03-20T07:25:48.755Z,9.20
2019-03-20T07:28:16.414Z,10.00
2019-03-20T07:30:43.822Z,8.90
2019-03-20T07:33:11.218Z,8.97
2019-03-20T07:35:38.643Z,8.40
2019-03-20T07:38:06.025Z,8.40
2019-03-20T07:40:33.418Z,8.10
2019-03-20T07:43:08.746Z,9.73
2019-03-20T07:45:30.159Z,8.83
2019-03-20T07:47:57.565Z,8.90
2019-03-20T07:50:24.999Z,9.10
2019-03-20T07:52:52.417Z,8.50
2019-03-20T07:55:19.823Z,7.83
2019-03-20T07:57:47.388Z,8.13
2019-03-20T08:00:14.872Z,9.97
2019-03-20T08:02:42.268Z,10.20
2019-03-20T08:05:10.323Z,9.40
2019-03-20T08:07:38.063Z,9.57
2019-03-20T08:10:08.555Z,9.10
2019-03-20T08:12:36.113Z,9.07
2019-03-20T08:15:04.866Z,10.10
2019-03-20T08:17:32.288Z,10.20
2019-03-20T08:20:00.575Z,9.37
2019-03-20T08:22:28.075Z,9.63
2019-03-20T08:24:55.846Z,10.40
2019-03-20T08:27:23.435Z,9.20
2019-03-20T08:29:50.819Z,9.70
2019-03-20T08:32:18.223Z,9.17
2019-03-20T08:34:45.873Z,8.50
2019-03-20T08:37:13.267Z,8.50
2019-03-20T08:39:41.775Z,8.87
2019-03-20T08:44:56.529Z,8.30
2019-03-20T08:47:27.162Z,9.30
2019-03-20T08:49:54.566Z,8.90
2019-03-20T08:52:21.950Z,8.53
2019-03-20T08:54:49.519Z,8.30
2019-03-20T08:57:17.114Z,8.50
2019-03-20T08:59:44.577Z,9.03
2019-03-20T09:02:12.054Z,9.43
2019-03-20T09:04:39.440Z,9.00
2019-03-20T09:07:07.148Z,8.37
2019-03-20T09:09:35.310Z,8.23
2019-03-20T09:12:02.749Z,11.03
2019-03-20T09:14:30.173Z,9.90
2019-03-20T09:16:57.809Z,8.80
2019-03-20T09:19:25.213Z,8.10
2019-03-20T09:21:52.620Z,7.60
2019-03-20T09:24:20.293Z,7.30
2019-03-20T09:26:47.703Z,7.30
2019-03-20T09:29:18.781Z,7.73
2019-03-20T09:31:44.523Z,7.80
2019-03-20T09:34:11.917Z,6.77
2019-03-20T09:36:43.490Z,6.40
2019-03-20T09:39:10.337Z,7.10
2019-03-20T09:41:37.763Z,5.50
2019-03-20T09:44:05.175Z,5.63
2019-03-20T09:46:32.611Z,3.40
2019-03-20T09:49:00.009Z,3.20
2019-03-20T09:51:27.395Z,3.30
2019-03-20T09:53:54.839Z,2.80
2019-03-20T09:56:22.223Z,2.10
2019-03-20T09:58:49.622Z,2.70
2019-03-20T10:01:17.354Z,2.77
2019-03-20T10:03:44.742Z,2.83
2019-03-20T10:06:12.139Z,2.77
2019-03-20T10:08:40.870Z,3.40
2019-03-20T10:11:08.686Z,3.03
2019-03-20T10:13:36.221Z,2.53
2019-03-20T10:16:03.751Z,2.83
2019-03-20T10:18:31.207Z,2.50
2019-03-20T10:20:58.653Z,2.67
2019-03-20T10:23:26.107Z,2.80
2019-03-20T10:25:53.521Z,2.40
2019-03-20T10:28:20.910Z,2.60
2019-03-20T10:30:48.354Z,2.80
2019-03-20T10:33:16.689Z,2.50
2019-03-20T10:35:50.168Z,2.83
2019-03-20T10:38:13.402Z,3.07
2019-03-20T10:40:40.859Z,2.80
2019-03-20T10:43:08.257Z,2.60
2019-03-20T10:45:35.723Z,2.60
2019-03-20T10:48:03.137Z,2.60
2019-03-20T10:50:30.533Z,3.07
2019-03-20T10:52:58.157Z,3.27
2019-03-20T10:55:25.538Z,3.50
2019-03-20T10:57:52.955Z,2.90
2019-03-20T11:00:20.762Z,3.10
2019-03-20T11:02:48.158Z,2.80
2019-03-20T11:05:15.961Z,2.67
2019-03-20T11:07:43.363Z,2.90
2019-03-20T11:10:13.572Z,2.30
2019-03-20T11:12:40.996Z,2.90
2019-03-20T11:15:10.622Z,3.10
2019-03-20T11:17:38.039Z,3.43
2019-03-20T11:20:05.885Z,3.10
2019-03-20T11:22:33.337Z,2.40
2019-03-20T11:25:00.727Z,2.67
2019-03-20T11:27:28.123Z,2.50
2019-03-20T11:29:55.558Z,2.73
2019-03-20T11:32:22.975Z,2.93
2019-03-20T11:34:50.414Z,4.27
2019-03-20T11:37:17.847Z,3.50
2019-03-20T11:39:45.231Z,3.50
2019-03-20T11:42:12.620Z,3.73
2019-03-20T11:44:40.279Z,4.20
2019-03-20T11:47:07.695Z,3.17
2019-03-20T11:49:35.083Z,3.50
2019-03-20T11:52:02.502Z,3.70
2019-03-20T11:54:29.903Z,3.90
2019-03-20T11:56:57.292Z,3.83
2019-03-20T11:59:25.059Z,4.00
2019-03-20T12:01:52.460Z,3.90
2019-03-20T12:04:19.858Z,2.77
2019-03-20T12:06:47.309Z,2.77
2019-03-20T12:09:14.919Z,3.13
2019-03-20T12:11:46.011Z,3.67
2019-03-20T12:14:11.875Z,2.53
2019-03-20T12:16:39.282Z,3.40
2019-03-20T12:19:06.686Z,3.10
2019-03-20T12:21:34.144Z,2.70
2019-03-20T12:24:01.551Z,2.80
2019-03-20T12:26:28.966Z,3.10
2019-03-20T12:28:56.415Z,2.90
2019-03-20T12:31:23.843Z,2.70
2019-03-20T12:33:52.187Z,3.07
2019-03-20T12:36:19.734Z,3.17
2019-03-20T12:38:47.151Z,2.93
2019-03-20T12:41:14.604Z,2.90
2019-03-20T12:43:42.067Z,3.20
2019-03-20T12:46:09.455Z,2.70
2019-03-20T12:48:36.862Z,3.10
2019-03-20T12:51:04.300Z,3.27
2019-03-20T12:53:31.857Z,3.40
2019-03-20T12:55:59.252Z,3.30
2019-03-20T12:58:26.909Z,3.83
2019-03-20T13:00:54.632Z,3.97
2019-03-20T13:03:22.131Z,3.67
2019-03-20T13:05:49.586Z,3.80
2019-03-20T13:08:17.485Z,3.33
2019-03-20T13:10:45.295Z,3.77
2019-03-20T13:13:12.851Z,3.63
2019-03-20T13:15:40.374Z,3.70
2019-03-20T13:18:07.766Z,3.10
2019-03-20T13:20:35.245Z,3.53
2019-03-20T13:23:05.667Z,3.30
2019-03-20T13:25:33.052Z,3.03
2019-03-20T13:28:00.555Z,3.10
2019-03-20T13:30:31.204Z,3.30
2019-03-20T13:32:58.602Z,3.07
2019-03-20T13:35:26.323Z,2.80
2019-03-20T13:37:53.729Z,3.20
2019-03-20T13:40:21.135Z,3.43
2019-03-20T13:42:48.575Z,3.23
2019-03-20T13:45:16.291Z,3.60
2019-03-20T13:47:43.686Z,3.43
2019-03-20T13:50:12.603Z,2.93
2019-03-20T13:52:40.323Z,3.30
2019-03-20T13:55:08.294Z,3.73
2019-03-20T13:57:35.835Z,3.40
2019-03-20T14:00:06.027Z,4.60
2019-03-20T14:02:33.448Z,3.03
2019-03-20T14:05:00.894Z,2.83
2019-03-20T14:07:30.461Z,3.10
2019-03-20T14:09:57.925Z,3.23
2019-03-20T14:12:25.675Z,3.50
2019-03-20T14:14:53.079Z,3.23
2019-03-20T14:17:20.479Z,5.50
2019-03-20T14:19:47.927Z,3.83
2019-03-20T14:22:15.325Z,3.27
2019-03-20T14:24:42.720Z,3.43
2019-03-20T14:27:10.207Z,3.70
2019-03-20T14:29:39.606Z,3.33
2019-03-20T14:32:06.829Z,3.20
2019-03-20T14:34:34.261Z,2.80
2019-03-20T14:37:01.686Z,2.20
2019-03-20T14:39:29.129Z,2.50
2019-03-20T14:41:56.712Z,2.80
2019-03-20T14:44:24.118Z,2.93
2019-03-20T14:46:51.506Z,3.00
2019-03-20T14:49:19.198Z,3.10
2019-03-20T14:51:46.590Z,3.10
2019-03-20T14:54:14.037Z,3.00
2019-03-20T14:56:41.675Z,3.07
2019-03-20T14:59:09.099Z,2.60
2019-03-20T15:01:36.502Z,2.60
2019-03-20T15:04:04.062Z,3.13
2019-03-20T15:06:31.454Z,2.57
2019-03-20T15:08:59.005Z,2.80
2019-03-20T15:11:27.068Z,3.17
2019-03-20T15:13:54.484Z,3.57
2019-03-20T15:16:21.948Z,3.67
2019-03-20T15:18:49.355Z,3.43
2019-03-20T15:21:16.740Z,3.13
2019-03-20T15:23:44.150Z,3.53
2019-03-20T15:26:11.585Z,10.70
2019-03-20T15:28:38.975Z,6.10
2019-03-20T15:31:06.372Z,5.13
2019-03-20T15:33:33.840Z,4.13
2019-03-20T15:36:01.251Z,4.63
2019-03-20T15:38:28.651Z,21.70
2019-03-20T15:40:56.550Z,6.30
2019-03-20T15:43:24.103Z,4.23
2019-03-20T15:45:51.519Z,15.97
2019-03-20T15:48:18.980Z,7.07
2019-03-20T15:50:46.507Z,3.40
2019-03-20T15:53:13.898Z,4.20
2019-03-20T15:55:41.395Z,6.67
2019-03-20T15:58:08.791Z,5.97
2019-03-20T16:00:36.182Z,4.80
2019-03-20T16:03:09.372Z,4.13
2019-03-20T16:05:36.771Z,3.27
2019-03-20T16:08:04.179Z,3.27
2019-03-20T16:10:31.796Z,3.50
2019-03-20T16:12:59.491Z,2.40
2019-03-20T16:15:26.923Z,4.17
2019-03-20T16:17:54.382Z,6.60
2019-03-20T16:20:21.801Z,10.80
2019-03-20T16:22:49.294Z,7.90
2019-03-20T16:25:16.979Z,5.50
2019-03-20T16:27:44.387Z,3.20
2019-03-20T16:30:14.491Z,3.47
2019-03-20T16:32:42.124Z,6.00
2019-03-20T16:35:09.756Z,3.60
2019-03-20T16:37:37.165Z,3.10
2019-03-20T16:40:06.223Z,2.03
2019-03-20T16:42:33.614Z,2.07
2019-03-20T16:45:01.032Z,1.80
2019-03-20T16:47:28.566Z,1.87
2019-03-20T16:49:57.735Z,1.97
2019-03-20T16:52:25.155Z,1.90
2019-03-20T16:54:52.675Z,1.77
2019-03-20T16:57:21.798Z,1.50
2019-03-20T16:59:49.301Z,2.20
2019-03-20T17:02:17.951Z,2.13
2019-03-20T17:04:45.363Z,1.53
2019-03-20T17:07:12.767Z,2.37
2019-03-20T17:09:40.206Z,2.20
2019-03-20T17:12:08.437Z,2.30
2019-03-20T17:14:35.835Z,2.30
2019-03-20T17:17:03.933Z,3.10
2019-03-20T17:19:31.342Z,2.97
2019-03-20T17:21:58.755Z,2.23
2019-03-20T17:24:26.294Z,3.20
2019-03-20T17:26:53.711Z,2.80
2019-03-20T17:29:21.118Z,2.70
2019-03-20T17:31:48.622Z,2.77
2019-03-20T17:34:16.030Z,2.60
2019-03-20T17:36:43.504Z,2.20
2019-03-20T17:39:11.183Z,2.40
2019-03-20T17:41:38.584Z,2.83
2019-03-20T17:44:05.987Z,2.90
2019-03-20T17:46:33.438Z,5.43
2019-03-20T17:49:00.846Z,6.60
2019-03-20T17:51:28.243Z,7.93
2019-03-20T17:53:55.743Z,8.30
2019-03-20T17:56:23.142Z,6.53
2019-03-20T17:58:50.555Z,5.47
2019-03-20T18:01:18.182Z,5.83
2019-03-20T18:03:45.571Z,5.10
2019-03-20T18:06:13.003Z,5.00
2019-03-20T18:08:40.724Z,5.90
2019-03-20T18:11:08.308Z,4.23
2019-03-20T18:13:36.110Z,3.17
2019-03-20T18:16:03.862Z,3.80
2019-03-20T18:18:31.251Z,3.60
2019-03-20T18:20:58.710Z,2.73
2019-03-20T18:23:26.155Z,2.43
2019-03-20T18:25:53.645Z,2.80
2019-03-20T18:28:21.821Z,2.93
2019-03-20T18:30:49.548Z,2.47
2019-03-20T18:33:17.047Z,3.03
2019-03-20T18:35:44.435Z,2.20
2019-03-20T18:38:11.933Z,2.33
2019-03-20T18:40:39.412Z,2.90
2019-03-20T18:43:06.973Z,4.23
2019-03-20T18:45:34.673Z,3.97
2019-03-20T18:48:02.128Z,4.40
2019-03-20T18:50:29.518Z,4.47
2019-03-20T18:52:57.203Z,4.87
2019-03-20T18:55:24.619Z,3.50
2019-03-20T18:57:52.027Z,4.20
2019-03-20T19:00:21.643Z,5.43
2019-03-20T19:02:49.436Z,5.90
2019-03-20T19:05:34.423Z,4.73
2019-03-20T19:08:02.227Z,4.97
2019-03-20T19:10:29.912Z,5.00
2019-03-20T19:12:57.625Z,4.83
2019-03-20T19:15:25.028Z,8.90
2019-03-20T19:17:52.445Z,8.43
2019-03-20T19:20:20.045Z,12.73
2019-03-20T19:22:47.534Z,8.70
2019-03-20T19:25:15.139Z,6.63
2019-03-20T19:27:42.600Z,5.30
2019-03-20T19:30:13.622Z,5.93
2019-03-20T19:32:41.134Z,5.20
2019-03-20T19:35:08.881Z,5.43
2019-03-20T19:37:36.284Z,5.70
2019-03-20T19:40:04.286Z,7.13
2019-03-20T19:42:31.923Z,7.87
2019-03-20T19:44:59.355Z,6.90
2019-03-20T19:47:26.970Z,7.17
2019-03-20T19:49:54.469Z,6.07
2019-03-20T19:52:21.870Z,7.30
2019-03-20T19:54:49.370Z,8.20
2019-03-20T19:57:18.646Z,8.00
2019-03-20T19:59:46.077Z,6.63
2019-03-20T20:02:13.598Z,5.87
2019-03-20T20:04:41.124Z,5.40
2019-03-20T20:07:08.543Z,6.20
2019-03-20T20:09:35.944Z,6.33
2019-03-20T20:12:30.792Z,5.37
2019-03-20T20:14:52.582Z,4.20
2019-03-20T20:17:20.039Z,3.97
2019-03-20T20:19:47.627Z,4.58
2019-03-20T20:22:15.031Z,3.90
2019-03-20T20:24:42.523Z,4.53
2019-03-20T20:27:10.190Z,3.43
2019-03-20T20:29:37.595Z,3.50
2019-03-20T20:32:04.987Z,3.37
2019-03-20T20:34:32.427Z,3.57
2019-03-20T20:36:59.961Z,3.80
2019-03-20T20:39:27.291Z,4.20
2019-03-20T20:41:55.062Z,4.47
2019-03-20T20:44:22.646Z,4.87
2019-03-20T20:46:49.886Z,4.30
2019-03-20T20:49:17.365Z,4.93
2019-03-20T20:51:44.789Z,5.23
2019-03-20T20:54:12.371Z,6.13
2019-03-20T20:56:40.064Z,5.67
2019-03-20T20:59:07.424Z,6.13
2019-03-20T21:01:34.856Z,5.40
2019-03-20T21:04:02.555Z,7.30
2019-03-20T21:06:29.942Z,6.97
2019-03-20T21:08:57.367Z,4.87
2019-03-20T21:11:25.045Z,3.83
2019-03-20T21:13:52.947Z,3.53
2019-03-20T21:16:21.028Z,4.13
2019-03-20T21:19:26.335Z,3.30
2019-03-20T21:22:41.547Z,4.40
2019-03-20T21:25:09.758Z,2.93
2019-03-20T21:28:21.894Z,3.40
2019-03-20T21:31:58.902Z,3.50
2019-03-20T21:35:03.867Z,3.20
2019-03-20T21:38:00.870Z,3.50
2019-03-20T21:40:31.235Z,3.00
2019-03-20T21:43:35.317Z,2.60
2019-03-20T21:46:35.715Z,3.10
2019-03-20T21:49:05.659Z,2.27
2019-03-20T21:51:33.599Z,3.70
2019-03-20T21:54:41.211Z,3.90
2019-03-20T21:57:51.831Z,3.50
2019-03-20T22:01:15.174Z,3.33
2019-03-20T22:03:44.211Z,3.00
2019-03-20T22:06:49.527Z,3.00
2019-03-20T22:10:14.600Z,3.17
2019-03-20T22:12:51.785Z,3.00
2019-03-20T22:15:26.934Z,3.53
2019-03-20T22:18:52.102Z,3.47
2019-03-20T22:21:31.398Z,3.17
2019-03-20T22:24:52.597Z,2.70
2019-03-20T22:28:04.671Z,3.00
2019-03-20T22:30:32.770Z,3.00
2019-03-20T22:33:36.718Z,2.90
2019-03-20T22:36:18.382Z,3.53
2019-03-20T22:39:39.699Z,3.27
2019-03-20T22:42:15.905Z,3.10
2019-03-20T22:45:38.813Z,2.80
2019-03-20T22:48:46.944Z,3.10
2019-03-20T22:51:24.273Z,2.40
2019-03-20T22:54:45.596Z,2.70
2019-03-20T22:57:28.394Z,2.53
2019-03-20T22:59:56.499Z,2.63
2019-03-20T23:02:29.763Z,2.80
2019-03-20T23:04:58.806Z,2.17
2019-03-20T23:07:26.838Z,2.30
2019-03-20T23:09:54.879Z,2.53
2019-03-20T23:12:24.955Z,1.80
2019-03-20T23:14:53.278Z,2.90
2019-03-20T23:17:21.482Z,2.40
2019-03-20T23:19:50.855Z,2.20
2019-03-20T23:22:18.915Z,2.60
2019-03-20T23:24:47.143Z,2.63
2019-03-20T23:27:21.491Z,3.13
2019-03-20T23:29:49.527Z,2.50
2019-03-20T23:32:17.670Z,2.40
2019-03-20T23:34:45.650Z,3.20
2019-03-20T23:37:13.593Z,2.43
2019-03-20T23:39:41.526Z,2.30
2019-03-20T23:42:09.846Z,2.83
2019-03-20T23:44:37.791Z,2.90
2019-03-20T23:47:05.870Z,2.60
2019-03-20T23:49:34.051Z,2.77
2019-03-20T23:52:01.988Z,2.60
2019-03-20T23:54:42.403Z,2.20
2019-03-20T23:57:10.446Z,2.90
2019-03-20T23:59:38.488Z,2.37
